Time;durP1;ratioP1;P1;durP2;ratioP2;P2;SDS_P1;SDS_P2;PMS_P1;PMS_P2;Temp;Humidity;BMP_temperature;BMP_pressure;BME280_temperature;BME280_humidity;BME280_pressure;Samples;Min_cycle;Max_cycle;Signal;HPM_P1;HPM_P2
2022/11/10 00:00:56;;;;;;;9.95;2.40;;;10.60;99.90;;;;;;5097380;28;20049;-67
2022/11/10 00:03:44;;;;;;;11.05;2.58;;;10.50;99.90;;;;;;5096217;28;20105;-68
2022/11/10 00:06:28;;;;;;;7.75;2.33;;;10.60;99.90;;;;;;5096999;28;20101;-68
2022/11/10 00:09:12;;;;;;;10.73;2.67;;;10.50;99.90;;;;;;5096270;28;20051;-68
2022/11/10 00:11:58;;;;;;;17.30;3.28;;;10.50;99.90;;;;;;5096868;28;20113;-67
2022/11/10 00:17:45;;;;;;;9.15;2.22;;;10.40;99.90;;;;;;5096338;28;20039;-68
2022/11/10 00:20:29;;;;;;;8.98;2.70;;;10.40;99.90;;;;;;5096393;28;20311;-67
2022/11/10 00:23:14;;;;;;;12.82;2.40;;;10.30;99.90;;;;;;5096885;28;20116;-68
2022/11/10 00:25:58;;;;;;;12.90;2.28;;;10.30;99.90;;;;;;5100000;28;20054;-67
2022/11/10 00:28:44;;;;;;;11.30;2.28;;;10.30;99.90;;;;;;5100347;28;20050;-68
2022/11/10 00:31:28;;;;;;;18.83;2.72;;;10.30;99.90;;;;;;5100248;28;20101;-67
2022/11/10 00:34:15;;;;;;;14.48;2.30;;;10.30;99.90;;;;;;5100529;28;20059;-67
2022/11/10 00:37:00;;;;;;;10.40;2.42;;;10.20;99.90;;;;;;5100371;28;20054;-69
2022/11/10 00:39:44;;;;;;;12.25;2.40;;;10.20;99.90;;;;;;5085812;28;20075;-67
2022/11/10 00:42:28;;;;;;;14.85;3.10;;;10.20;99.90;;;;;;5099453;28;20177;-66
2022/11/10 00:45:12;;;;;;;14.88;2.40;;;10.20;99.90;;;;;;5100708;28;20410;-66
2022/11/10 00:47:56;;;;;;;12.02;2.55;;;10.10;99.90;;;;;;5099992;28;20055;-68
2022/11/10 00:50:41;;;;;;;11.52;2.58;;;10.20;99.90;;;;;;5100811;28;20410;-67
2022/11/10 00:53:25;;;;;;;11.68;2.35;;;10.10;99.90;;;;;;5099897;28;20106;-68
2022/11/10 00:56:09;;;;;;;14.65;2.78;;;10.10;99.90;;;;;;5099151;28;20082;-67
2022/11/10 00:58:54;;;;;;;13.43;2.40;;;10.10;99.90;;;;;;5099535;28;20152;-66
2022/11/10 01:01:38;;;;;;;11.52;3.20;;;10.10;99.90;;;;;;5085237;28;20104;-67
2022/11/10 01:04:23;;;;;;;11.43;2.70;;;10.10;99.90;;;;;;5100133;28;20047;-69
2022/11/10 01:07:07;;;;;;;10.48;2.80;;;10.10;99.90;;;;;;5099726;28;20042;-68
2022/11/10 01:09:51;;;;;;;12.63;2.40;;;10.00;99.90;;;;;;5100436;28;20043;-67
2022/11/10 01:12:36;;;;;;;15.80;2.65;;;10.00;99.90;;;;;;5084813;28;20043;-67
2022/11/10 01:15:21;;;;;;;15.85;2.83;;;10.00;99.90;;;;;;5099077;28;20414;-68
2022/11/10 01:18:05;;;;;;;18.08;2.80;;;9.90;99.90;;;;;;5084531;28;20131;-68
2022/11/10 01:20:55;;;;;;;13.57;2.90;;;9.90;99.90;;;;;;5099324;28;20047;-67
2022/11/10 01:23:40;;;;;;;13.10;2.63;;;9.80;99.90;;;;;;5099403;28;20178;-68
2022/11/10 01:26:27;;;;;;;11.15;3.00;;;9.90;99.90;;;;;;5084323;28;20364;-67
2022/11/10 01:29:14;;;;;;;12.15;2.92;;;9.90;99.90;;;;;;5099445;28;20051;-69
2022/11/10 01:31:59;;;;;;;11.18;2.78;;;9.90;99.90;;;;;;5099466;28;20101;-67
2022/11/10 01:34:43;;;;;;;12.73;2.60;;;9.90;99.90;;;;;;5099095;28;20190;-69
2022/11/10 01:37:28;;;;;;;18.73;3.55;;;9.90;99.90;;;;;;5098989;28;20104;-67
2022/11/10 01:40:12;;;;;;;12.00;2.83;;;9.80;99.90;;;;;;5098296;28;20043;-69
2022/11/10 01:42:57;;;;;;;14.40;2.95;;;9.80;99.90;;;;;;5098782;28;20059;-67
2022/11/10 01:45:53;;;;;;;11.88;2.83;;;9.80;99.90;;;;;;5099493;28;20381;-67
2022/11/10 01:48:44;;;;;;;14.02;3.05;;;9.80;99.90;;;;;;5099059;28;20120;-69
2022/11/10 01:51:39;;;;;;;13.00;2.90;;;9.80;99.90;;;;;;5098618;28;20093;-69
2022/11/10 01:54:28;;;;;;;12.35;2.80;;;9.80;99.90;;;;;;5098657;28;20092;-68
2022/11/10 01:57:13;;;;;;;15.18;3.05;;;9.80;99.90;;;;;;5098803;28;20126;-68
2022/11/10 02:00:00;;;;;;;11.95;2.63;;;9.80;99.90;;;;;;5097794;28;20059;-70
2022/11/10 02:02:54;;;;;;;11.50;2.90;;;9.70;99.90;;;;;;5098286;28;20047;-68
2022/11/10 02:05:39;;;;;;;17.08;3.08;;;9.70;99.90;;;;;;5098344;28;20063;-67
2022/11/10 02:08:24;;;;;;;15.70;3.45;;;9.70;99.90;;;;;;5098717;28;20127;-68
2022/11/10 02:11:09;;;;;;;13.93;3.10;;;9.70;99.90;;;;;;5083812;28;20051;-68
2022/11/10 02:13:54;;;;;;;15.75;3.30;;;9.70;99.90;;;;;;5097693;28;20093;-69
2022/11/10 02:16:39;;;;;;;10.35;3.13;;;9.70;99.90;;;;;;5098977;28;20050;-69
2022/11/10 02:19:28;;;;;;;16.92;3.28;;;9.70;99.90;;;;;;5097690;28;20182;-69
2022/11/10 02:22:12;;;;;;;12.95;2.92;;;9.70;99.90;;;;;;5097538;28;20181;-68
2022/11/10 02:24:57;;;;;;;12.40;3.20;;;9.70;99.90;;;;;;5098203;28;20354;-68
2022/11/10 02:27:41;;;;;;;14.48;3.08;;;9.70;99.90;;;;;;5097554;28;20089;-69
2022/11/10 02:30:26;;;;;;;15.38;3.10;;;9.80;99.90;;;;;;5098233;28;20365;-69
2022/11/10 02:33:11;;;;;;;15.68;3.13;;;9.80;99.90;;;;;;5098377;28;20046;-68
2022/11/10 02:35:55;;;;;;;19.88;2.97;;;9.80;99.90;;;;;;5097428;28;20059;-68
2022/11/10 02:38:40;;;;;;;13.00;2.90;;;9.80;99.90;;;;;;5097268;28;20116;-69
2022/11/10 02:41:24;;;;;;;10.77;2.35;;;9.80;99.90;;;;;;5097288;28;20070;-68
2022/11/10 02:44:09;;;;;;;18.38;3.08;;;9.80;99.90;;;;;;5097807;28;20046;-68
2022/11/10 02:46:53;;;;;;;11.98;2.97;;;9.80;99.90;;;;;;5082835;28;20043;-69
2022/11/10 02:49:37;;;;;;;16.98;3.10;;;9.80;99.90;;;;;;5097600;28;20058;-68
2022/11/10 02:52:22;;;;;;;16.52;3.00;;;9.80;99.90;;;;;;5082751;28;20092;-70
2022/11/10 02:55:07;;;;;;;14.48;2.45;;;9.80;99.90;;;;;;5097036;28;20055;-69
2022/11/10 02:57:51;;;;;;;19.80;3.60;;;9.70;99.90;;;;;;5096765;28;20046;-68
2022/11/10 03:00:35;;;;;;;17.27;3.00;;;9.70;99.90;;;;;;5097769;28;20109;-68
2022/11/10 03:03:20;;;;;;;17.63;2.58;;;9.70;99.90;;;;;;5096828;28;20047;-68
2022/11/10 03:06:04;;;;;;;12.65;3.38;;;9.70;99.90;;;;;;5097587;28;20065;-68
2022/11/10 03:08:48;;;;;;;16.30;3.22;;;9.70;99.90;;;;;;5097055;28;20035;-69
2022/11/10 03:11:32;;;;;;;15.32;3.30;;;9.70;99.90;;;;;;5097520;28;20126;-68
2022/11/10 03:14:17;;;;;;;17.58;3.40;;;9.70;99.90;;;;;;5082834;28;20345;-69
2022/11/10 03:17:01;;;;;;;15.15;2.75;;;9.60;99.90;;;;;;5083077;28;20109;-69
2022/11/10 03:19:46;;;;;;;15.82;2.72;;;9.60;99.90;;;;;;5097219;28;20074;-69
2022/11/10 03:22:30;;;;;;;12.73;2.65;;;9.60;99.90;;;;;;5096959;28;20078;-68
2022/11/10 03:25:14;;;;;;;15.35;3.30;;;9.60;99.90;;;;;;5096740;28;20310;-68
2022/11/10 03:28:00;;;;;;;14.38;2.75;;;9.60;99.90;;;;;;5082549;28;20047;-68
2022/11/10 03:30:44;;;;;;;16.02;2.83;;;9.60;99.90;;;;;;5096734;28;20055;-67
2022/11/10 03:33:28;;;;;;;13.18;3.10;;;9.60;99.90;;;;;;5096540;28;20051;-68
2022/11/10 03:36:13;;;;;;;16.25;3.15;;;9.60;99.90;;;;;;5097356;28;20043;-68
2022/11/10 03:38:57;;;;;;;18.92;2.97;;;9.60;99.90;;;;;;5082397;28;20187;-67
2022/11/10 03:41:41;;;;;;;21.77;3.10;;;9.60;99.90;;;;;;5097218;28;20044;-68
2022/11/10 03:44:25;;;;;;;13.93;3.15;;;9.70;99.90;;;;;;5096295;28;20116;-68
2022/11/10 03:47:09;;;;;;;16.67;3.20;;;9.80;99.90;;;;;;5096907;28;20043;-67
2022/11/10 03:49:54;;;;;;;15.27;2.83;;;9.80;99.90;;;;;;5082464;28;20466;-67
2022/11/10 03:52:39;;;;;;;16.35;3.25;;;9.90;99.90;;;;;;5097070;28;20109;-69
2022/11/10 03:55:27;;;;;;;17.88;2.97;;;10.00;99.90;;;;;;5097162;28;20074;-68
2022/11/10 03:58:15;;;;;;;11.77;2.63;;;10.00;99.90;;;;;;5096981;28;20435;-68
2022/11/10 04:00:59;;;;;;;12.48;2.50;;;10.10;99.90;;;;;;5100311;28;20307;-69
2022/11/10 04:03:44;;;;;;;13.65;2.97;;;10.10;99.90;;;;;;5101070;28;20055;-70
2022/11/10 04:09:31;;;;;;;18.30;2.47;;;10.00;99.90;;;;;;5101604;28;20097;-69
2022/11/10 04:18:25;;;;;;;16.55;2.60;;;9.90;99.90;;;;;;5100908;28;20094;-68
2022/11/10 04:21:11;;;;;;;14.35;3.33;;;9.90;99.90;;;;;;5100214;28;20212;-68
2022/11/10 04:23:55;;;;;;;12.40;2.58;;;9.80;99.90;;;;;;5100713;28;20066;-68
2022/11/10 04:26:41;;;;;;;13.45;2.83;;;9.80;99.90;;;;;;5100487;28;20093;-69
2022/11/10 04:29:26;;;;;;;15.27;2.88;;;9.80;99.90;;;;;;5099767;28;20050;-68
2022/11/10 04:32:10;;;;;;;14.90;3.25;;;9.80;99.90;;;;;;5100627;28;20050;-68
2022/11/10 04:34:55;;;;;;;14.32;2.40;;;9.80;99.90;;;;;;5085621;28;20059;-68
2022/11/10 04:37:39;;;;;;;19.80;3.08;;;9.80;99.90;;;;;;5099647;28;20051;-69
2022/11/10 04:40:23;;;;;;;16.00;2.45;;;9.80;99.90;;;;;;5100156;28;20055;-68
2022/11/10 04:43:08;;;;;;;13.55;2.90;;;9.70;99.90;;;;;;5099710;28;20073;-68
2022/11/10 04:45:53;;;;;;;15.52;2.90;;;9.70;99.90;;;;;;5100271;28;20109;-68
2022/11/10 04:48:37;;;;;;;12.77;2.72;;;9.80;99.90;;;;;;5100208;28;20047;-69
2022/11/10 04:51:31;;;;;;;19.75;3.13;;;9.80;99.90;;;;;;5099985;28;20413;-67
2022/11/10 04:54:15;;;;;;;12.82;2.58;;;9.80;99.90;;;;;;5099621;28;20082;-68
2022/11/10 04:57:06;;;;;;;15.45;2.97;;;9.80;99.90;;;;;;5100397;28;20361;-67
2022/11/10 04:59:51;;;;;;;16.05;3.30;;;9.70;99.90;;;;;;5085201;28;20066;-67
2022/11/10 05:02:35;;;;;;;9.30;2.35;;;9.70;99.90;;;;;;5099640;28;20051;-69
2022/11/10 05:05:20;;;;;;;18.02;2.85;;;9.70;99.90;;;;;;5099496;28;20074;-67
2022/11/10 05:08:05;;;;;;;13.68;2.97;;;9.70;99.90;;;;;;5099852;28;20059;-67
2022/11/10 05:10:49;;;;;;;10.88;2.40;;;9.70;99.90;;;;;;5097752;28;20109;-68
2022/11/10 05:13:33;;;;;;;18.42;3.08;;;9.70;99.90;;;;;;5084547;28;20047;-69
2022/11/10 05:16:18;;;;;;;15.02;2.63;;;9.70;99.90;;;;;;5100019;28;20054;-67
2022/11/10 05:19:03;;;;;;;21.67;2.88;;;9.60;99.90;;;;;;5099390;28;20039;-67
2022/11/10 05:21:47;;;;;;;21.17;2.72;;;9.60;99.90;;;;;;5084855;28;20369;-68
2022/11/10 05:24:31;;;;;;;12.27;2.67;;;9.60;99.90;;;;;;5084318;28;20054;-68
2022/11/10 05:27:15;;;;;;;21.02;2.90;;;9.60;99.90;;;;;;5098923;28;20094;-69
2022/11/10 05:30:03;;;;;;;16.30;3.08;;;9.60;99.90;;;;;;5098892;28;20425;-68
2022/11/10 05:32:47;;;;;;;14.35;2.83;;;9.60;99.90;;;;;;5084693;28;20043;-68
2022/11/10 05:35:32;;;;;;;12.50;2.85;;;9.50;99.90;;;;;;5099085;28;20312;-68
2022/11/10 05:38:17;;;;;;;18.73;3.28;;;9.50;99.90;;;;;;5098431;28;20138;-68
2022/11/10 05:41:04;;;;;;;16.17;3.00;;;9.50;99.90;;;;;;5099092;28;20113;-69
2022/11/10 05:43:49;;;;;;;17.80;2.90;;;9.50;99.90;;;;;;5098257;28;20130;-69
2022/11/10 05:46:33;;;;;;;7.35;2.25;;;9.40;99.90;;;;;;5099381;28;20068;-69
2022/11/10 05:49:17;;;;;;;16.13;3.00;;;9.40;99.90;;;;;;5098296;28;20083;-70
2022/11/10 05:52:01;;;;;;;17.15;3.08;;;9.40;99.90;;;;;;5098410;28;20422;-68
2022/11/10 05:54:46;;;;;;;11.77;2.67;;;9.40;99.90;;;;;;5098360;28;20136;-68
2022/11/10 05:57:32;;;;;;;12.65;2.67;;;9.40;99.90;;;;;;5098081;28;20059;-68
2022/11/10 06:00:22;;;;;;;20.70;3.22;;;9.40;99.90;;;;;;5098044;28;20327;-68
2022/11/10 06:03:18;;;;;;;15.52;2.78;;;9.40;99.90;;;;;;5098159;28;20365;-68
2022/11/10 06:06:03;;;;;;;20.67;2.67;;;9.40;99.90;;;;;;5098325;28;20124;-68
2022/11/10 06:08:47;;;;;;;12.25;2.75;;;9.40;99.90;;;;;;5098396;28;20043;-70
2022/11/10 06:11:31;;;;;;;17.30;2.53;;;9.40;99.90;;;;;;5083751;28;20135;-69
2022/11/10 06:14:16;;;;;;;16.77;2.60;;;9.40;99.90;;;;;;5098387;28;20397;-68
2022/11/10 06:17:01;;;;;;;9.75;2.40;;;9.40;99.90;;;;;;5098444;28;20132;-69
2022/11/10 06:19:46;;;;;;;12.02;2.53;;;9.40;99.90;;;;;;5097583;28;20090;-68
2022/11/10 06:22:30;;;;;;;23.10;3.30;;;9.40;99.90;;;;;;5097439;28;20108;-68
2022/11/10 06:25:14;;;;;;;14.27;2.78;;;9.40;99.90;;;;;;5097481;28;20051;-68
2022/11/10 06:27:59;;;;;;;12.75;3.10;;;9.30;99.90;;;;;;5098342;28;20118;-68
2022/11/10 06:30:44;;;;;;;17.08;3.20;;;9.40;99.90;;;;;;5098929;28;20217;-67
2022/11/10 06:33:28;;;;;;;15.77;2.75;;;9.40;99.90;;;;;;5098178;28;20135;-68
2022/11/10 06:36:12;;;;;;;19.50;2.97;;;9.40;99.90;;;;;;5098511;28;20055;-66
2022/11/10 06:38:56;;;;;;;17.10;2.90;;;9.40;99.90;;;;;;5097269;28;20058;-66
2022/11/10 06:41:41;;;;;;;14.30;2.60;;;9.40;99.90;;;;;;5097478;28;20394;-67
2022/11/10 06:44:25;;;;;;;14.32;2.80;;;9.40;99.90;;;;;;5097325;28;20055;-67
2022/11/10 06:47:09;;;;;;;16.67;3.35;;;9.50;99.90;;;;;;5098388;28;20169;-66
2022/11/10 06:49:53;;;;;;;14.15;2.55;;;9.40;99.90;;;;;;5082544;28;20101;-66
2022/11/10 06:52:38;;;;;;;11.40;3.10;;;9.40;99.90;;;;;;5097458;28;20070;-68
2022/11/10 06:55:23;;;;;;;11.57;3.33;;;9.40;99.90;;;;;;5082895;28;20422;-67
2022/11/10 06:58:09;;;;;;;17.80;3.70;;;9.40;99.90;;;;;;5097574;28;20086;-67
2022/11/10 07:00:53;;;;;;;13.63;3.55;;;9.30;99.90;;;;;;5097166;28;20097;-68
2022/11/10 07:03:38;;;;;;;20.25;3.60;;;9.30;99.90;;;;;;5096882;28;20398;-66
2022/11/10 07:06:23;;;;;;;16.95;3.58;;;9.40;99.90;;;;;;5096725;28;20114;-66
2022/11/10 07:09:07;;;;;;;20.73;3.55;;;9.40;99.90;;;;;;5097316;28;20043;-67
2022/11/10 07:11:51;;;;;;;16.63;3.80;;;9.30;99.90;;;;;;5082484;28;20055;-65
2022/11/10 07:14:36;;;;;;;12.77;3.05;;;9.40;99.90;;;;;;5097224;28;20055;-67
2022/11/10 07:17:21;;;;;;;13.85;3.22;;;9.40;99.90;;;;;;5097258;28;20425;-66
2022/11/10 07:20:06;;;;;;;14.57;3.42;;;9.40;99.90;;;;;;5097168;28;20109;-67
2022/11/10 07:22:57;;;;;;;14.18;3.20;;;9.40;99.90;;;;;;5096969;28;20124;-66
2022/11/10 07:25:41;;;;;;;13.05;2.88;;;9.40;99.90;;;;;;5096634;28;20440;-68
2022/11/10 07:28:26;;;;;;;14.55;3.15;;;9.40;99.90;;;;;;5082285;28;20326;-66
2022/11/10 07:31:10;;;;;;;15.57;3.55;;;9.50;99.90;;;;;;5097528;28;20475;-68
2022/11/10 07:33:55;;;;;;;12.10;2.90;;;9.50;99.90;;;;;;5096597;28;20427;-63
2022/11/10 07:36:39;;;;;;;14.50;3.42;;;9.60;99.90;;;;;;5096666;28;20051;-69
2022/11/10 07:39:23;;;;;;;21.67;3.60;;;9.60;99.90;;;;;;5096354;28;20442;-70
2022/11/10 07:42:07;;;;;;;18.13;3.42;;;9.60;99.90;;;;;;5096362;28;20116;-69
2022/11/10 07:44:52;;;;;;;17.52;4.07;;;9.70;99.90;;;;;;5096548;28;20109;-70
2022/11/10 07:47:36;;;;;;;14.70;3.33;;;9.70;99.90;;;;;;5097166;28;20055;-69
2022/11/10 07:50:20;;;;;;;17.52;3.10;;;9.70;99.90;;;;;;5096463;28;20051;-69
2022/11/10 07:53:12;;;;;;;15.00;3.42;;;9.70;99.90;;;;;;5082489;28;20047;-71
2022/11/10 07:55:58;;;;;;;13.87;3.20;;;9.70;99.90;;;;;;5096829;28;20097;-69
2022/11/10 07:58:42;;;;;;;13.60;3.20;;;9.80;99.90;;;;;;5081934;28;20773;-68
2022/11/10 08:01:27;;;;;;;15.35;2.97;;;9.80;99.90;;;;;;5096169;28;20143;-68
2022/11/10 08:04:11;;;;;;;17.42;3.03;;;9.90;99.90;;;;;;5082559;28;20395;-67
2022/11/10 08:06:57;;;;;;;14.25;3.00;;;9.90;99.90;;;;;;5096710;28;20128;-68
2022/11/10 08:09:41;;;;;;;19.38;3.22;;;10.00;99.90;;;;;;5096365;28;20047;-68
2022/11/10 08:12:25;;;;;;;17.00;3.17;;;10.10;99.90;;;;;;5096651;28;20498;-70
2022/11/10 08:15:10;;;;;;;19.17;3.47;;;10.10;99.90;;;;;;5082364;28;20414;-69
2022/11/10 08:17:59;;;;;;;18.73;3.20;;;10.10;99.90;;;;;;5082028;28;20478;-69
2022/11/10 08:20:44;;;;;;;19.00;3.45;;;10.30;99.90;;;;;;5096649;28;20131;-69
2022/11/10 08:23:29;;;;;;;15.95;2.88;;;10.30;99.90;;;;;;5096258;28;20108;-68
2022/11/10 08:26:15;;;;;;;14.43;2.53;;;10.40;99.90;;;;;;5095953;28;20315;-65
2022/11/10 08:29:00;;;;;;;15.02;2.70;;;10.50;99.90;;;;;;5095975;28;20134;-66
2022/11/10 08:31:44;;;;;;;15.23;2.63;;;10.50;99.90;;;;;;5096212;28;20125;-68
2022/11/10 08:34:29;;;;;;;11.73;2.85;;;10.60;99.90;;;;;;5095928;28;20106;-70
2022/11/10 08:37:13;;;;;;;15.30;3.20;;;10.70;99.90;;;;;;5095887;28;20050;-69
2022/11/10 08:40:03;;;;;;;11.90;2.70;;;10.70;99.90;;;;;;5096415;28;20051;-70
2022/11/10 08:42:57;;;;;;;16.77;3.15;;;10.70;99.90;;;;;;5096361;28;20116;-71
2022/11/10 08:45:43;;;;;;;14.00;3.13;;;10.70;99.90;;;;;;5099830;28;20108;-71
2022/11/10 08:48:27;;;;;;;14.68;3.03;;;10.70;99.90;;;;;;5085232;28;20050;-70
2022/11/10 08:51:11;;;;;;;17.08;3.05;;;10.80;99.90;;;;;;5085193;28;20112;-70
2022/11/10 08:53:56;;;;;;;9.80;2.42;;;10.90;99.90;;;;;;5099269;28;20101;-69
2022/11/10 08:56:43;;;;;;;16.85;3.00;;;11.00;99.90;;;;;;5084909;28;20047;-70
2022/11/10 08:59:31;;;;;;;12.25;2.63;;;11.00;99.90;;;;;;5099464;28;20074;-71
2022/11/10 09:02:15;;;;;;;12.75;2.80;;;11.00;99.90;;;;;;5099596;28;20109;-72
2022/11/10 09:05:00;;;;;;;11.80;2.90;;;11.10;99.90;;;;;;5100104;28;20051;-70
2022/11/10 09:07:48;;;;;;;16.40;3.65;;;11.20;99.90;;;;;;5099589;28;20093;-71
2022/11/10 09:10:41;;;;;;;11.15;2.30;;;11.20;99.90;;;;;;5098930;28;20089;-71
2022/11/10 09:13:26;;;;;;;13.10;2.80;;;11.20;99.90;;;;;;5098974;28;20315;-71
2022/11/10 09:16:14;;;;;;;11.20;2.90;;;11.20;99.90;;;;;;5099205;28;20105;-70
2022/11/10 09:18:58;;;;;;;12.68;2.78;;;11.30;99.90;;;;;;5099452;28;20051;-71
2022/11/10 09:21:42;;;;;;;16.08;3.58;;;11.40;99.90;;;;;;5098886;28;20046;-70
2022/11/10 09:24:26;;;;;;;14.05;3.28;;;11.40;99.90;;;;;;5099948;28;20364;-71
2022/11/10 09:27:11;;;;;;;13.45;2.83;;;11.50;99.90;;;;;;5099117;28;20327;-71
2022/11/10 09:29:55;;;;;;;13.85;3.22;;;11.60;99.90;;;;;;5098771;28;20055;-72
2022/11/10 09:32:39;;;;;;;12.88;2.45;;;11.70;99.90;;;;;;5099637;28;20068;-70
2022/11/10 09:35:24;;;;;;;9.65;2.40;;;11.80;99.90;;;;;;5099029;28;20110;-70
2022/11/10 09:38:10;;;;;;;9.43;2.28;;;12.00;99.90;;;;;;5098397;28;20101;-72
2022/11/10 09:41:02;;;;;;;10.27;2.25;;;12.30;99.90;;;;;;5099484;28;20114;-67
2022/11/10 09:44:00;;;;;;;9.70;2.08;;;12.40;99.90;;;;;;5098545;28;20127;-73
2022/11/10 09:47:00;;;;;;;12.57;2.25;;;12.50;99.90;;;;;;5098793;28;20047;-67
2022/11/10 09:49:52;;;;;;;13.90;2.42;;;12.60;99.90;;;;;;5099650;28;20101;-68
2022/11/10 09:52:38;;;;;;;12.70;2.45;;;12.60;99.90;;;;;;5098870;28;20047;-71
2022/11/10 09:55:36;;;;;;;8.68;1.75;;;12.80;99.90;;;;;;5098320;28;20070;-68
2022/11/10 09:58:25;;;;;;;8.57;1.85;;;12.90;99.90;;;;;;5098016;28;20053;-71
2022/11/10 10:01:31;;;;;;;12.80;2.15;;;13.20;99.90;;;;;;5098537;28;20054;-68
2022/11/10 10:04:43;;;;;;;13.70;2.67;;;13.30;99.90;;;;;;5099144;28;20047;-72
2022/11/10 10:07:35;;;;;;;9.18;2.00;;;13.60;99.90;;;;;;5098194;28;20059;-72
2022/11/10 10:10:46;;;;;;;8.88;1.77;;;13.80;99.90;;;;;;5098346;28;20043;-72
2022/11/10 10:14:08;;;;;;;9.95;1.80;;;14.10;99.90;;;;;;5097567;28;20047;-72
2022/11/10 10:17:16;;;;;;;7.97;1.98;;;14.50;99.90;;;;;;5098780;28;20078;-71
2022/11/10 10:20:18;;;;;;;13.38;2.30;;;14.70;99.90;;;;;;5098243;28;20132;-71
2022/11/10 10:23:26;;;;;;;11.90;2.03;;;15.40;99.90;;;;;;5098037;28;20098;-72
2022/11/10 10:26:17;;;;;;;7.78;1.80;;;16.40;99.90;;;;;;5098404;28;20191;-71
2022/11/10 10:29:13;;;;;;;13.55;2.08;;;15.90;99.90;;;;;;5097516;28;20460;-71
2022/11/10 10:32:00;;;;;;;7.97;1.55;;;15.20;99.90;;;;;;5097921;28;20039;-69
2022/11/10 10:34:47;;;;;;;11.30;1.73;;;15.70;99.90;;;;;;5097670;28;20122;-72
2022/11/10 10:37:40;;;;;;;8.48;1.55;;;15.60;99.90;;;;;;5083569;28;20101;-69
2022/11/10 10:40:24;;;;;;;8.48;1.63;;;15.50;99.90;;;;;;5098478;28;20038;-69
2022/11/10 10:43:08;;;;;;;12.10;1.70;;;15.40;99.90;;;;;;5097474;28;20050;-72
2022/11/10 10:46:06;;;;;;;7.45;1.50;;;15.80;99.90;;;;;;5097129;28;20418;-74
2022/11/10 10:49:16;;;;;;;6.07;1.38;;;16.30;99.90;;;;;;5097788;28;20174;-71
2022/11/10 10:52:15;;;;;;;7.88;1.48;;;15.80;99.90;;;;;;5098071;28;20054;-71
2022/11/10 10:55:04;;;;;;;9.48;1.60;;;15.20;99.90;;;;;;5097057;28;20065;-72
2022/11/10 10:57:54;;;;;;;8.38;1.80;;;15.20;99.90;;;;;;5097897;28;20364;-71
2022/11/10 11:00:50;;;;;;;8.90;1.42;;;15.10;99.90;;;;;;5098276;28;20120;-72
2022/11/10 11:03:46;;;;;;;8.50;1.40;;;14.80;99.90;;;;;;5097707;28;20553;-71
2022/11/10 11:06:33;;;;;;;7.93;1.48;;;14.90;99.90;;;;;;5097441;28;20431;-71
2022/11/10 11:09:29;;;;;;;5.82;1.35;;;15.00;99.90;;;;;;5097644;28;20398;-69
2022/11/10 11:12:26;;;;;;;11.05;1.67;;;15.30;99.90;;;;;;5097563;28;20043;-73
2022/11/10 11:15:20;;;;;;;6.00;1.55;;;15.30;99.90;;;;;;5096821;28;20430;-68
2022/11/10 11:18:16;;;;;;;8.88;2.10;;;15.20;99.90;;;;;;5097721;28;20055;-72
2022/11/10 11:21:06;;;;;;;4.65;1.48;;;15.30;99.90;;;;;;5097734;28;20331;-71
2022/11/10 11:24:12;;;;;;;8.15;1.75;;;15.30;99.90;;;;;;5097343;28;20113;-67
2022/11/10 11:27:17;;;;;;;8.85;1.80;;;15.00;99.90;;;;;;5097990;28;20047;-71
2022/11/10 11:30:14;;;;;;;8.45;1.33;;;14.80;99.90;;;;;;5097489;28;20047;-69
2022/11/10 11:33:10;;;;;;;10.95;1.45;;;14.70;99.90;;;;;;5097145;28;20046;-71
2022/11/10 11:36:25;;;;;;;6.82;1.63;;;14.90;99.90;;;;;;5097296;28;20051;-71
2022/11/10 11:39:39;;;;;;;7.68;1.80;;;15.00;99.90;;;;;;5096617;28;20303;-70
2022/11/10 11:42:48;;;;;;;6.53;1.60;;;15.20;99.90;;;;;;5093052;28;20051;-70
2022/11/10 11:46:17;;;;;;;7.30;1.65;;;15.20;99.90;;;;;;5097704;28;20122;-72
2022/11/10 11:49:25;;;;;;;5.57;1.50;;;15.20;99.90;;;;;;5069459;28;20047;-71
2022/11/10 11:52:33;;;;;;;6.32;1.55;;;15.30;99.90;;;;;;5096539;28;20039;-73
2022/11/10 11:55:41;;;;;;;8.25;1.38;;;15.50;99.90;;;;;;5097538;28;20067;-71
2022/11/10 11:58:44;;;;;;;7.28;1.40;;;15.90;99.90;;;;;;5097381;28;20047;-69
2022/11/10 12:01:51;;;;;;;7.67;1.50;;;16.20;99.90;;;;;;5096837;28;20042;-72
2022/11/10 12:05:24;;;;;;;7.38;1.50;;;16.00;99.90;;;;;;5097253;28;20470;-73
2022/11/10 12:08:30;;;;;;;7.55;1.35;;;15.70;99.90;;;;;;5047025;28;20074;-71
2022/11/10 12:11:38;;;;;;;7.07;1.40;;;15.70;99.90;;;;;;5096802;28;20315;-71
2022/11/10 12:14:45;;;;;;;6.93;1.40;;;15.70;99.90;;;;;;5097130;28;20364;-69
2022/11/10 12:17:35;;;;;;;7.25;1.50;;;15.80;99.90;;;;;;5096793;28;20042;-71
2022/11/10 12:20:42;;;;;;;6.65;1.20;;;15.90;99.90;;;;;;5099073;28;20043;-70
2022/11/10 12:23:35;;;;;;;6.90;1.38;;;15.90;99.90;;;;;;5101355;28;20082;-70
2022/11/10 12:26:26;;;;;;;7.47;1.40;;;16.10;99.90;;;;;;5100567;28;20047;-70
2022/11/10 12:29:56;;;;;;;5.40;1.20;;;16.20;99.90;;;;;;5101103;28;20043;-70
2022/11/10 12:32:55;;;;;;;7.32;1.45;;;16.30;99.90;;;;;;5066330;28;20093;-69
2022/11/10 12:35:44;;;;;;;6.70;1.42;;;16.40;99.90;;;;;;5100629;28;20109;-69
2022/11/10 12:38:41;;;;;;;6.18;1.00;;;16.50;99.90;;;;;;5099811;28;20054;-71
2022/11/10 12:41:42;;;;;;;6.22;1.10;;;16.50;99.90;;;;;;5100240;28;20043;-72
2022/11/10 12:44:45;;;;;;;6.30;1.17;;;16.30;99.90;;;;;;5100578;28;20391;-70
2022/11/10 12:47:42;;;;;;;6.97;1.25;;;16.00;99.90;;;;;;5100173;28;20055;-70
2022/11/10 12:50:33;;;;;;;6.25;1.23;;;15.90;99.90;;;;;;5100896;28;20043;-72
2022/11/10 12:53:17;;;;;;;3.75;1.00;;;15.80;99.90;;;;;;5100424;28;20436;-69
2022/11/10 12:56:19;;;;;;;4.18;1.05;;;15.90;99.90;;;;;;5100889;28;20047;-69
2022/11/10 12:59:18;;;;;;;4.97;0.95;;;16.10;99.90;;;;;;5099537;28;20067;-70
2022/11/10 13:02:39;;;;;;;4.50;1.10;;;16.30;99.90;;;;;;5100423;28;20043;-70
2022/11/10 13:05:44;;;;;;;6.45;1.35;;;16.40;99.90;;;;;;5099722;28;20096;-70
2022/11/10 13:08:45;;;;;;;4.57;0.85;;;16.80;99.90;;;;;;5085253;28;20055;-70
2022/11/10 13:11:33;;;;;;;5.47;0.90;;;16.50;99.90;;;;;;5099921;28;20089;-67
2022/11/10 13:14:28;;;;;;;4.03;1.00;;;16.30;99.90;;;;;;5100736;28;20047;-71
2022/11/10 13:17:27;;;;;;;4.03;1.15;;;16.20;99.90;;;;;;5099935;28;20050;-70
2022/11/10 13:20:46;;;;;;;3.50;1.30;;;16.20;99.90;;;;;;5100307;28;20047;-68
2022/11/10 13:23:47;;;;;;;5.93;1.00;;;16.10;99.90;;;;;;5099578;28;20104;-73
2022/11/10 13:26:44;;;;;;;4.57;1.10;;;16.00;99.90;;;;;;5099360;28;20123;-69
2022/11/10 13:29:33;;;;;;;6.20;1.10;;;15.80;99.90;;;;;;5100144;28;20089;-73
2022/11/10 13:32:31;;;;;;;3.30;0.90;;;15.70;99.90;;;;;;5098638;28;20104;-72
2022/11/10 13:35:27;;;;;;;6.05;1.02;;;15.80;99.90;;;;;;5100222;28;20066;-72
2022/11/10 13:38:36;;;;;;;5.80;1.20;;;15.90;99.90;;;;;;5099504;28;20039;-69
2022/11/10 13:41:24;;;;;;;4.95;1.10;;;15.70;99.90;;;;;;5098528;28;20043;-71
2022/11/10 13:44:29;;;;;;;4.07;1.35;;;15.80;99.90;;;;;;5099790;28;20039;-71
2022/11/10 13:47:43;;;;;;;5.93;1.15;;;15.80;99.90;;;;;;5099232;28;20039;-68
2022/11/10 13:50:30;;;;;;;;;;;15.80;99.90;;;;;;5091924;28;20047;-71
2022/11/10 13:53:40;;;;;;;3.08;0.88;;;15.50;99.90;;;;;;5099002;28;20297;-71
2022/11/10 13:57:18;;;;;;;5.55;1.10;;;15.50;99.90;;;;;;5099616;28;20043;-70
2022/11/10 14:00:17;;;;;;;4.05;1.20;;;15.60;99.90;;;;;;5098598;28;20066;-71
2022/11/10 14:03:05;;;;;;;6.45;1.40;;;15.60;99.90;;;;;;5098150;28;20042;-69
2022/11/10 14:06:10;;;;;;;4.50;1.00;;;15.50;99.90;;;;;;5098582;28;20139;-70
2022/11/10 14:09:27;;;;;;;4.72;1.50;;;15.50;99.90;;;;;;5098259;28;20194;-72
2022/11/10 14:13:02;;;;;;;5.35;1.13;;;15.40;99.90;;;;;;5098828;28;20349;-72
2022/11/10 14:15:48;;;;;;;6.50;2.03;;;15.50;99.90;;;;;;5005628;28;20056;-71
2022/11/10 14:18:41;;;;;;;4.38;1.10;;;15.40;99.90;;;;;;5098037;28;20319;-74
2022/11/10 14:21:54;;;;;;;7.75;1.20;;;15.30;99.90;;;;;;5099117;28;20122;-74
2022/11/10 14:25:05;;;;;;;5.93;1.23;;;15.20;99.90;;;;;;5099046;28;20043;-72
2022/11/10 14:27:50;;;;;;;7.07;1.10;;;15.10;99.90;;;;;;5099196;28;20317;-72
2022/11/10 14:30:34;;;;;;;7.35;1.08;;;15.10;99.90;;;;;;5098842;28;20042;-71
2022/11/10 14:33:20;;;;;;;4.72;1.13;;;15.10;99.90;;;;;;5098116;28;20124;-71
2022/11/10 14:36:09;;;;;;;5.50;1.48;;;15.00;99.90;;;;;;5099220;28;20046;-70
2022/11/10 14:38:53;;;;;;;5.10;1.50;;;15.00;99.90;;;;;;5098231;28;20054;-73
2022/11/10 14:41:47;;;;;;;10.45;1.48;;;14.80;99.90;;;;;;5098645;28;20051;-72
2022/11/10 14:44:33;;;;;;;4.05;1.55;;;14.80;99.90;;;;;;5098647;28;20291;-71
2022/11/10 14:47:29;;;;;;;6.07;1.40;;;14.80;99.90;;;;;;5097938;28;20363;-71
2022/11/10 14:50:20;;;;;;;6.18;1.35;;;14.80;99.90;;;;;;5083069;28;20039;-72
2022/11/10 14:53:30;;;;;;;6.00;1.35;;;14.70;99.90;;;;;;5097961;28;20039;-69
2022/11/10 14:56:35;;;;;;;8.18;1.20;;;14.70;99.90;;;;;;5097775;28;20193;-71